Time,TemperatureF,DewpointF,PressureIn,WindDirection,WindDirectionDegrees,WindSpeedMPH,WindSpeedGustMPH,Humidity,HourlyPrecipIn,Conditions,Clouds,dailyrainin,SoftwareType,DateUTC
2013-04-11 00:04:00,61.1,57.0,29.76,SSW,197,0.0,3.0,85,0.04,,,0.00,weatherlink.com 1.10,2013-04-11 04:04:00,
2013-04-11 00:19:00,59.7,57.0,29.72,South,169,3.0,4.0,90,0.02,,,0.01,weatherlink.com 1.10,2013-04-11 04:19:00,
2013-04-11 00:34:00,61.4,57.0,29.75,South,173,2.0,4.0,84,0.02,,,0.01,weatherlink.com 1.10,2013-04-11 04:34:00,
2013-04-11 00:49:00,58.3,56.0,29.77,South,179,3.0,6.0,90,0.01,,,0.01,weatherlink.com 1.10,2013-04-11 04:49:00,
2013-04-11 01:04:00,61.6,56.0,29.76,SSE,162,3.0,6.0,83,0.03,,,0.03,weatherlink.com 1.10,2013-04-11 05:04:00,
2013-04-11 01:19:00,58.3,56.0,29.75,SE,141,2.0,5.0,90,0.02,,,0.03,weatherlink.com 1.10,2013-04-11 05:19:00,
2013-04-11 01:34:00,62.2,57.0,29.76,SSW,194,2.0,4.0,82,0.02,,,0.03,weatherlink.com 1.10,2013-04-11 05:34:00,
2013-04-11 01:49:00,58.6,56.0,29.75,SSE,150,4.0,4.0,90,0.02,,,0.03,weatherlink.com 1.10,2013-04-11 05:49:00,
2013-04-11 02:04:00,60.3,56.0,29.74,SSE,158,0.0,3.0,85,0.00,,,0.03,weatherlink.com 1.10,2013-04-11 06:04:00,
2013-04-11 02:19:00,58.0,55.0,29.74,SSE,153,1.0,3.0,90,0.00,,,0.03,weatherlink.com 1.10,2013-04-11 06:19:00,
2013-04-11 02:34:00,63.0,56.0,29.72,South,180,0.0,3.0,79,0.00,,,0.03,weatherlink.com 1.10,2013-04-11 06:34:00,
2013-04-11 02:49:00,59.5,56.0,29.70,SSE,166,0.0,0.0,87,0.00,,,0.03,weatherlink.com 1.10,2013-04-11 06:49:00,
2013-04-11 03:04:00,61.4,56.0,29.69,NW,325,1.0,3.0,82,0.00,,,0.03,weatherlink.com 1.10,2013-04-11 07:04:00,
2013-04-11 03:19:00,58.9,56.0,29.70,NW,323,0.0,1.0,89,0.00,,,0.03,weatherlink.com 1.10,2013-04-11 07:19:00,
2013-04-11 03:34:00,59.2,56.0,29.71,SW,215,0.0,1.0,89,0.00,,,0.03,weatherlink.com 1.10,2013-04-11 07:34:00,
2013-04-11 03:49:00,58.6,56.0,29.73,NNW,335,0.0,1.0,91,0.00,,,0.03,weatherlink.com 1.10,2013-04-11 07:49:00,
2013-04-11 04:04:00,62.2,57.0,29.72,South,172,0.0,4.0,84,0.00,,,0.03,weatherlink.com 1.10,2013-04-11 08:04:00,
2013-04-11 04:19:00,59.5,57.0,29.74,NNW,328,0.0,2.0,91,0.00,,,0.03,weatherlink.com 1.10,2013-04-11 08:19:00,
2013-04-11 04:34:00,61.0,58.0,29.75,WNW,301,2.0,3.0,90,0.00,,,0.03,weatherlink.com 1.10,2013-04-11 08:34:00,
2013-04-11 04:49:00,60.1,57.0,29.76,NNW,348,2.0,4.0,90,0.00,,,0.03,weatherlink.com 1.10,2013-04-11 08:49:00,
2013-04-11 05:04:00,62.1,58.0,29.77,SE,145,2.0,3.0,87,0.00,,,0.03,weatherlink.com 1.10,2013-04-11 09:04:00,
2013-04-11 05:19:00,59.2,56.0,29.78,North,352,2.0,6.0,88,0.00,,,0.03,weatherlink.com 1.10,2013-04-11 09:19:00,
2013-04-11 05:34:00,58.2,54.0,29.78,NNW,331,3.0,6.0,86,0.00,,,0.03,weatherlink.com 1.10,2013-04-11 09:34:00,
2013-04-11 05:49:00,56.9,53.0,29.79,NW,318,0.0,5.0,88,0.00,,,0.03,weatherlink.com 1.10,2013-04-11 09:49:00,
2013-04-11 06:05:00,56.8,53.0,29.80,North,8,1.0,6.0,86,0.00,,,0.03,weatherlink.com 1.10,2013-04-11 10:05:00,
2013-04-11 06:20:00,56.7,52.0,29.81,NNW,333,1.0,5.0,84,0.00,,,0.03,weatherlink.com 1.10,2013-04-11 10:20:00,
2013-04-11 06:35:00,56.2,51.0,29.82,North,4,1.0,5.0,83,0.00,,,0.03,weatherlink.com 1.10,2013-04-11 10:35:00,
2013-04-11 06:50:00,55.7,51.0,29.82,NW,320,2.0,7.0,83,0.00,,,0.03,weatherlink.com 1.10,2013-04-11 10:50:00,
2013-04-11 07:05:00,55.2,50.0,29.84,NNW,333,0.0,6.0,83,0.00,,,0.03,weatherlink.com 1.10,2013-04-11 11:05:00,
2013-04-11 07:20:00,54.9,50.0,29.84,NNE,19,1.0,4.0,83,0.00,,,0.03,weatherlink.com 1.10,2013-04-11 11:20:00,
2013-04-11 07:35:00,54.9,50.0,29.83,North,9,3.0,5.0,83,0.00,,,0.03,weatherlink.com 1.10,2013-04-11 11:35:00,
2013-04-11 07:50:00,55.2,50.0,29.84,NW,314,2.0,7.0,81,0.00,,,0.03,weatherlink.com 1.10,2013-04-11 11:50:00,
2013-04-11 08:05:00,54.9,49.0,29.83,NNW,335,4.0,10.0,79,0.00,,,0.03,weatherlink.com 1.10,2013-04-11 12:05:00,
2013-04-11 08:20:00,55.1,48.0,29.84,NW,322,2.0,7.0,78,0.00,,,0.03,weatherlink.com 1.10,2013-04-11 12:20:00,
2013-04-11 08:35:00,54.3,48.0,29.84,WNW,283,2.0,8.0,78,0.00,,,0.03,weatherlink.com 1.10,2013-04-11 12:35:00,
2013-04-11 08:50:00,54.0,47.0,29.85,North,4,6.0,9.0,78,0.00,,,0.03,weatherlink.com 1.10,2013-04-11 12:50:00,
2013-04-11 09:05:00,54.0,47.0,29.85,North,10,2.0,9.0,78,0.00,,,0.03,weatherlink.com 1.10,2013-04-11 13:05:00,
2013-04-11 09:20:00,53.9,47.0,29.85,North,11,2.0,10.0,78,0.00,,,0.03,weatherlink.com 1.10,2013-04-11 13:20:00,
2013-04-11 09:35:00,54.3,47.0,29.86,NNW,344,6.0,8.0,77,0.00,,,0.03,weatherlink.com 1.10,2013-04-11 13:35:00,
2013-04-11 09:50:00,54.6,48.0,29.86,NW,312,3.0,6.0,77,0.00,,,0.03,weatherlink.com 1.10,2013-04-11 13:50:00,
2013-04-11 10:05:00,55.1,47.0,29.86,NW,326,4.0,8.0,75,0.00,,,0.03,weatherlink.com 1.10,2013-04-11 14:05:00,
2013-04-11 10:20:00,55.4,48.0,29.87,NNW,335,2.0,9.0,75,0.00,,,0.03,weatherlink.com 1.10,2013-04-11 14:20:00,
2013-04-11 10:35:00,56.0,48.0,29.87,NNW,347,3.0,5.0,74,0.00,,,0.03,weatherlink.com 1.10,2013-04-11 14:35:00,
2013-04-11 10:50:00,56.1,48.0,29.88,NW,326,3.0,6.0,75,0.00,,,0.03,weatherlink.com 1.10,2013-04-11 14:50:00,
2013-04-11 11:05:00,56.7,49.0,29.87,NNW,344,3.0,4.0,75,0.00,,,0.03,weatherlink.com 1.10,2013-04-11 15:05:00,
2013-04-11 11:20:00,56.2,48.0,29.88,NNW,329,2.0,8.0,75,0.00,,,0.03,weatherlink.com 1.10,2013-04-11 15:20:00,
2013-04-11 11:35:00,57.2,49.0,29.87,NNW,336,1.0,4.0,74,0.00,,,0.03,weatherlink.com 1.10,2013-04-11 15:35:00,
2013-04-11 11:50:00,57.9,49.0,29.88,NE,37,0.0,7.0,72,0.00,,,0.03,weatherlink.com 1.10,2013-04-11 15:50:00,
2013-04-11 12:05:00,58.7,49.0,29.88,ESE,109,2.0,3.0,70,0.00,,,0.03,weatherlink.com 1.10,2013-04-11 16:05:00,
2013-04-11 12:20:00,59.0,49.0,29.88,NNW,338,1.0,4.0,69,0.00,,,0.03,weatherlink.com 1.10,2013-04-11 16:20:00,
2013-04-11 12:35:00,58.8,48.0,29.88,NE,43,4.0,7.0,68,0.00,,,0.03,weatherlink.com 1.10,2013-04-11 16:35:00,
2013-04-11 12:50:00,59.8,49.0,29.88,ENE,65,1.0,4.0,68,0.00,,,0.03,weatherlink.com 1.10,2013-04-11 16:50:00,
2013-04-11 13:05:00,59.7,49.0,29.88,NNW,340,2.0,5.0,67,0.00,,,0.03,weatherlink.com 1.10,2013-04-11 17:05:00,
2013-04-11 13:20:00,59.9,48.0,29.88,NNE,13,2.0,6.0,66,0.00,,,0.03,weatherlink.com 1.10,2013-04-11 17:20:00,
2013-04-11 13:35:00,59.5,48.0,29.88,NNW,345,3.0,6.0,66,0.00,,,0.03,weatherlink.com 1.10,2013-04-11 17:35:00,
2013-04-11 13:50:00,59.9,48.0,29.88,NE,47,7.0,7.0,66,0.00,,,0.03,weatherlink.com 1.10,2013-04-11 17:50:00,
2013-04-11 14:05:00,60.0,49.0,29.88,North,4,2.0,5.0,66,0.00,,,0.03,weatherlink.com 1.10,2013-04-11 18:05:00,
2013-04-11 14:20:00,60.4,48.0,29.88,NNW,339,1.0,4.0,64,0.00,,,0.03,weatherlink.com 1.10,2013-04-11 18:20:00,
2013-04-11 14:35:00,60.7,48.0,29.88,NW,306,3.0,6.0,63,0.00,,,0.03,weatherlink.com 1.10,2013-04-11 18:35:00,
2013-04-11 14:50:00,60.9,48.0,29.87,SSE,155,3.0,4.0,63,0.00,,,0.03,weatherlink.com 1.10,2013-04-11 18:50:00,
2013-04-11 15:05:00,61.1,48.0,29.87,NNW,345,1.0,6.0,62,0.00,,,0.03,weatherlink.com 1.10,2013-04-11 19:05:00,
2013-04-11 15:20:00,60.9,48.0,29.87,NW,325,2.0,5.0,63,0.00,,,0.03,weatherlink.com 1.10,2013-04-11 19:20:00,
2013-04-11 15:50:00,61.1,48.0,29.87,North,354,0.0,3.0,63,0.00,,,0.03,weatherlink.com 1.10,2013-04-11 19:50:00,
2013-04-11 16:05:00,61.2,48.0,29.86,NE,51,3.0,5.0,62,0.00,,,0.03,weatherlink.com 1.10,2013-04-11 20:05:00,
2013-04-11 16:20:00,60.4,49.0,29.86,SSW,193,1.0,4.0,66,0.00,,,0.03,weatherlink.com 1.10,2013-04-11 20:20:00,
2013-04-11 16:35:00,58.6,49.0,29.86,South,179,0.0,3.0,71,0.00,,,0.03,weatherlink.com 1.10,2013-04-11 20:35:00,
2013-04-11 16:50:00,57.6,48.0,29.86,SE,142,1.0,4.0,71,0.00,,,0.03,weatherlink.com 1.10,2013-04-11 20:50:00,
2013-04-11 17:05:00,56.6,48.0,29.87,ESE,113,0.0,6.0,73,0.00,,,0.03,weatherlink.com 1.10,2013-04-11 21:05:00,
2013-04-11 17:20:00,56.1,48.0,29.88,SW,217,0.0,4.0,73,0.00,,,0.03,weatherlink.com 1.10,2013-04-11 21:20:00,
2013-04-11 17:36:00,54.7,47.0,29.89,West,266,3.0,7.0,74,0.00,,,0.03,weatherlink.com 1.10,2013-04-11 21:36:00,
2013-04-11 17:51:00,53.0,46.0,29.90,SE,139,2.0,5.0,76,0.00,,,0.03,weatherlink.com 1.10,2013-04-11 21:51:00,
2013-04-11 18:06:00,51.8,45.0,29.91,SE,139,2.0,7.0,77,0.00,,,0.03,weatherlink.com 1.10,2013-04-11 22:06:00,
2013-04-11 18:51:00,50.3,43.0,29.92,SW,219,2.0,8.0,77,0.00,,,0.03,weatherlink.com 1.10,2013-04-11 22:51:00,
2013-04-11 19:06:00,49.9,43.0,29.91,SSE,153,0.0,6.0,78,0.00,,,0.03,weatherlink.com 1.10,2013-04-11 23:06:00,
2013-04-11 19:21:00,49.3,43.0,29.92,West,269,1.0,8.0,79,0.00,,,0.03,weatherlink.com 1.10,2013-04-11 23:21:00,
2013-04-11 19:36:00,48.9,43.0,29.92,NE,53,2.0,6.0,79,0.00,,,0.03,weatherlink.com 1.10,2013-04-11 23:36:00,
2013-04-11 19:51:00,48.8,42.0,29.92,NW,325,1.0,6.0,78,0.00,,,0.03,weatherlink.com 1.10,2013-04-11 23:51:00,
2013-04-11 20:06:00,48.7,42.0,29.92,SW,228,1.0,5.0,77,0.00,,,0.03,weatherlink.com 1.10,2013-04-12 00:06:00,
2013-04-11 20:21:00,48.7,41.0,29.94,NNW,330,1.0,4.0,75,0.00,,,0.03,weatherlink.com 1.10,2013-04-12 00:21:00,
2013-04-11 20:36:00,50.7,41.0,29.94,SSW,198,2.0,6.0,70,0.00,,,0.03,weatherlink.com 1.10,2013-04-12 00:36:00,
2013-04-11 20:51:00,50.6,41.0,29.94,ENE,57,3.0,5.0,70,0.00,,,0.03,weatherlink.com 1.10,2013-04-12 00:51:00,
2013-04-11 21:06:00,50.2,41.0,29.93,SSW,204,2.0,7.0,71,0.00,,,0.03,weatherlink.com 1.10,2013-04-12 01:06:00,
2013-04-11 21:21:00,50.1,41.0,29.95,ESE,122,2.0,5.0,71,0.00,,,0.03,weatherlink.com 1.10,2013-04-12 01:21:00,
2013-04-11 21:36:00,50.7,41.0,29.95,SE,145,3.0,5.0,70,0.00,,,0.03,weatherlink.com 1.10,2013-04-12 01:36:00,
2013-04-11 21:51:00,50.5,41.0,29.95,SSW,194,4.0,6.0,70,0.00,,,0.03,weatherlink.com 1.10,2013-04-12 01:51:00,
2013-04-11 22:06:00,50.4,41.0,29.96,SE,129,3.0,6.0,69,0.00,,,0.03,weatherlink.com 1.10,2013-04-12 02:06:00,
2013-04-11 22:21:00,49.5,40.0,29.96,SE,124,1.0,5.0,70,0.00,,,0.03,weatherlink.com 1.10,2013-04-12 02:21:00,
2013-04-11 22:36:00,49.9,40.0,29.96,NW,325,1.0,6.0,69,0.00,,,0.03,weatherlink.com 1.10,2013-04-12 02:36:00,
2013-04-11 22:51:00,49.9,40.0,29.96,SSE,155,3.0,6.0,68,0.00,,,0.03,weatherlink.com 1.10,2013-04-12 02:51:00,
2013-04-11 23:06:00,50.2,39.0,29.96,NE,41,1.0,4.0,66,0.00,,,0.03,weatherlink.com 1.10,2013-04-12 03:06:00,
2013-04-11 23:21:00,49.5,39.0,29.96,North,349,3.0,4.0,67,0.00,,,0.03,weatherlink.com 1.10,2013-04-12 03:21:00,
2013-04-11 23:36:00,48.7,39.0,29.96,NW,308,2.0,6.0,68,0.00,,,0.03,weatherlink.com 1.10,2013-04-12 03:36:00,
2013-04-11 23:51:00,48.7,39.0,29.95,ESE,118,0.0,6.0,68,0.00,,,0.03,weatherlink.com 1.10,2013-04-12 03:51:00,